sensor_id;sensor_type;location;lat;lon;timestamp;temperature;humidity
68257;DHT22;55069;51.568;4.656;2024-03-08T00:00:14;3.99;91.42
68257;DHT22;55069;51.568;4.656;2024-03-08T00:02:47;3.95;91.31
68257;DHT22;55069;51.568;4.656;2024-03-08T00:05:13;3.91;91.37
68257;DHT22;55069;51.568;4.656;2024-03-08T00:07:39;3.89;91.29
68257;DHT22;55069;51.568;4.656;2024-03-08T00:10:07;3.88;91.28
68257;DHT22;55069;51.568;4.656;2024-03-08T00:12:44;3.88;90.83
68257;DHT22;55069;51.568;4.656;2024-03-08T00:15:11;3.79;91.19
68257;DHT22;55069;51.568;4.656;2024-03-08T00:17:39;3.81;90.78
68257;DHT22;55069;51.568;4.656;2024-03-08T00:20:06;3.75;91.09
68257;DHT22;55069;51.568;4.656;2024-03-08T00:22:34;3.77;91.03
68257;DHT22;55069;51.568;4.656;2024-03-08T00:24:59;3.72;91.27
68257;DHT22;55069;51.568;4.656;2024-03-08T00:27:25;3.71;91.67
68257;DHT22;55069;51.568;4.656;2024-03-08T00:29:50;3.61;91.42
68257;DHT22;55069;51.568;4.656;2024-03-08T00:32:16;3.61;91.99
68257;DHT22;55069;51.568;4.656;2024-03-08T00:34:42;3.62;91.00
68257;DHT22;55069;51.568;4.656;2024-03-08T00:37:08;3.65;91.22
68257;DHT22;55069;51.568;4.656;2024-03-08T00:39:33;3.58;92.33
68257;DHT22;55069;51.568;4.656;2024-03-08T00:41:59;3.52;91.56
68257;DHT22;55069;51.568;4.656;2024-03-08T00:44:24;3.45;91.66
68257;DHT22;55069;51.568;4.656;2024-03-08T00:46:50;3.51;91.43
68257;DHT22;55069;51.568;4.656;2024-03-08T00:49:15;3.48;91.11
68257;DHT22;55069;51.568;4.656;2024-03-08T00:51:42;3.48;91.29
68257;DHT22;55069;51.568;4.656;2024-03-08T00:54:08;3.47;90.94
68257;DHT22;55069;51.568;4.656;2024-03-08T00:56:34;3.43;91.25
68257;DHT22;55069;51.568;4.656;2024-03-08T00:59:01;3.43;91.18
68257;DHT22;55069;51.568;4.656;2024-03-08T01:01:28;3.41;90.83
68257;DHT22;55069;51.568;4.656;2024-03-08T01:03:53;3.43;90.64
68257;DHT22;55069;51.568;4.656;2024-03-08T01:06:19;3.44;90.48
68257;DHT22;55069;51.568;4.656;2024-03-08T01:08:45;3.45;90.44
68257;DHT22;55069;51.568;4.656;2024-03-08T01:11:13;3.47;89.92
68257;DHT22;55069;51.568;4.656;2024-03-08T01:13:39;3.37;89.87
68257;DHT22;55069;51.568;4.656;2024-03-08T01:16:05;3.35;90.22
68257;DHT22;55069;51.568;4.656;2024-03-08T01:18:30;3.30;90.92
68257;DHT22;55069;51.568;4.656;2024-03-08T01:20:55;3.26;90.96
68257;DHT22;55069;51.568;4.656;2024-03-08T01:23:21;3.23;90.85
68257;DHT22;55069;51.568;4.656;2024-03-08T01:25:47;3.20;90.88
68257;DHT22;55069;51.568;4.656;2024-03-08T01:28:14;3.13;91.50
68257;DHT22;55069;51.568;4.656;2024-03-08T01:30:39;3.12;91.16
68257;DHT22;55069;51.568;4.656;2024-03-08T01:33:05;3.09;90.92
68257;DHT22;55069;51.568;4.656;2024-03-08T01:35:31;3.03;91.33
68257;DHT22;55069;51.568;4.656;2024-03-08T01:37:56;3.03;91.43
68257;DHT22;55069;51.568;4.656;2024-03-08T01:40:21;3.00;91.35
68257;DHT22;55069;51.568;4.656;2024-03-08T01:42:47;3.00;91.46
68257;DHT22;55069;51.568;4.656;2024-03-08T01:45:13;3.02;92.11
68257;DHT22;55069;51.568;4.656;2024-03-08T01:47:39;2.97;91.55
68257;DHT22;55069;51.568;4.656;2024-03-08T01:50:05;2.96;91.48
68257;DHT22;55069;51.568;4.656;2024-03-08T01:52:32;2.96;91.07
68257;DHT22;55069;51.568;4.656;2024-03-08T01:55:03;3.02;90.62
68257;DHT22;55069;51.568;4.656;2024-03-08T01:57:32;2.97;90.57
68257;DHT22;55069;51.568;4.656;2024-03-08T02:00:00;2.92;91.01
68257;DHT22;55069;51.568;4.656;2024-03-08T02:02:32;2.96;91.01
68257;DHT22;55069;51.568;4.656;2024-03-08T02:05:00;2.88;91.45
68257;DHT22;55069;51.568;4.656;2024-03-08T02:07:26;2.81;91.40
68257;DHT22;55069;51.568;4.656;2024-03-08T02:09:51;2.81;91.25
68257;DHT22;55069;51.568;4.656;2024-03-08T02:12:17;2.76;91.56
68257;DHT22;55069;51.568;4.656;2024-03-08T02:14:46;2.74;91.50
68257;DHT22;55069;51.568;4.656;2024-03-08T02:17:12;2.68;91.52
68257;DHT22;55069;51.568;4.656;2024-03-08T02:19:38;2.66;91.75
68257;DHT22;55069;51.568;4.656;2024-03-08T02:22:04;2.65;91.82
68257;DHT22;55069;51.568;4.656;2024-03-08T02:24:30;2.62;91.87
68257;DHT22;55069;51.568;4.656;2024-03-08T02:26:55;2.71;91.46
68257;DHT22;55069;51.568;4.656;2024-03-08T02:29:22;2.64;90.86
68257;DHT22;55069;51.568;4.656;2024-03-08T02:31:51;2.66;91.09
68257;DHT22;55069;51.568;4.656;2024-03-08T02:34:16;2.66;91.14
68257;DHT22;55069;51.568;4.656;2024-03-08T02:36:41;2.61;91.31
68257;DHT22;55069;51.568;4.656;2024-03-08T02:39:07;2.62;91.25
68257;DHT22;55069;51.568;4.656;2024-03-08T02:41:33;2.61;91.28
68257;DHT22;55069;51.568;4.656;2024-03-08T02:43:58;2.59;91.34
68257;DHT22;55069;51.568;4.656;2024-03-08T02:46:25;2.51;91.21
68257;DHT22;55069;51.568;4.656;2024-03-08T02:48:50;2.52;91.72
68257;DHT22;55069;51.568;4.656;2024-03-08T02:51:16;2.45;91.47
68257;DHT22;55069;51.568;4.656;2024-03-08T02:53:41;2.47;91.66
68257;DHT22;55069;51.568;4.656;2024-03-08T02:56:08;2.42;91.75
68257;DHT22;55069;51.568;4.656;2024-03-08T02:58:38;2.42;91.87
68257;DHT22;55069;51.568;4.656;2024-03-08T03:01:03;2.34;91.49
68257;DHT22;55069;51.568;4.656;2024-03-08T03:03:29;2.30;91.28
68257;DHT22;55069;51.568;4.656;2024-03-08T03:05:54;2.33;91.27
68257;DHT22;55069;51.568;4.656;2024-03-08T03:08:22;2.27;91.77
68257;DHT22;55069;51.568;4.656;2024-03-08T03:10:49;2.30;91.45
68257;DHT22;55069;51.568;4.656;2024-03-08T03:13:14;2.37;91.06
68257;DHT22;55069;51.568;4.656;2024-03-08T03:15:40;2.33;90.90
68257;DHT22;55069;51.568;4.656;2024-03-08T03:18:08;2.33;90.58
68257;DHT22;55069;51.568;4.656;2024-03-08T03:20:33;2.36;91.03
68257;DHT22;55069;51.568;4.656;2024-03-08T03:23:06;2.31;92.14
68257;DHT22;55069;51.568;4.656;2024-03-08T03:25:33;2.27;91.18
68257;DHT22;55069;51.568;4.656;2024-03-08T03:28:01;2.24;91.07
68257;DHT22;55069;51.568;4.656;2024-03-08T03:30:27;2.31;90.94
68257;DHT22;55069;51.568;4.656;2024-03-08T03:32:56;2.30;90.70
68257;DHT22;55069;51.568;4.656;2024-03-08T03:35:24;2.31;90.31
68257;DHT22;55069;51.568;4.656;2024-03-08T03:37:49;2.28;90.03
68257;DHT22;55069;51.568;4.656;2024-03-08T03:40:37;2.30;90.07
68257;DHT22;55069;51.568;4.656;2024-03-08T03:43:03;2.28;90.19
68257;DHT22;55069;51.568;4.656;2024-03-08T03:45:29;2.30;90.09
68257;DHT22;55069;51.568;4.656;2024-03-08T03:47:58;2.21;90.42
68257;DHT22;55069;51.568;4.656;2024-03-08T03:50:25;2.26;90.01
68257;DHT22;55069;51.568;4.656;2024-03-08T03:52:51;2.21;89.51
68257;DHT22;55069;51.568;4.656;2024-03-08T03:55:16;2.24;89.57
68257;DHT22;55069;51.568;4.656;2024-03-08T03:57:43;2.24;89.52
68257;DHT22;55069;51.568;4.656;2024-03-08T04:00:11;2.31;89.19
68257;DHT22;55069;51.568;4.656;2024-03-08T04:02:40;2.23;89.57
68257;DHT22;55069;51.568;4.656;2024-03-08T04:05:06;2.18;89.51
68257;DHT22;55069;51.568;4.656;2024-03-08T04:07:33;2.21;88.87
68257;DHT22;55069;51.568;4.656;2024-03-08T04:10:00;2.21;89.37
68257;DHT22;55069;51.568;4.656;2024-03-08T04:12:26;2.18;89.32
68257;DHT22;55069;51.568;4.656;2024-03-08T04:14:51;2.20;89.10
68257;DHT22;55069;51.568;4.656;2024-03-08T04:17:18;2.21;88.78
68257;DHT22;55069;51.568;4.656;2024-03-08T04:19:44;2.11;89.08
68257;DHT22;55069;51.568;4.656;2024-03-08T04:22:09;2.13;89.12
68257;DHT22;55069;51.568;4.656;2024-03-08T04:24:34;2.13;88.99
68257;DHT22;55069;51.568;4.656;2024-03-08T04:27:00;2.05;89.11
68257;DHT22;55069;51.568;4.656;2024-03-08T04:29:26;2.00;89.55
68257;DHT22;55069;51.568;4.656;2024-03-08T04:31:52;1.97;90.22
68257;DHT22;55069;51.568;4.656;2024-03-08T04:34:22;1.96;89.99
68257;DHT22;55069;51.568;4.656;2024-03-08T04:36:48;1.95;89.52
68257;DHT22;55069;51.568;4.656;2024-03-08T04:39:14;1.96;89.73
68257;DHT22;55069;51.568;4.656;2024-03-08T04:41:41;1.95;89.79
68257;DHT22;55069;51.568;4.656;2024-03-08T04:44:09;1.96;89.85
68257;DHT22;55069;51.568;4.656;2024-03-08T04:46:35;1.93;89.20
68257;DHT22;55069;51.568;4.656;2024-03-08T04:49:01;2.02;89.52
68257;DHT22;55069;51.568;4.656;2024-03-08T04:51:26;2.02;88.94
68257;DHT22;55069;51.568;4.656;2024-03-08T04:53:52;1.97;89.42
68257;DHT22;55069;51.568;4.656;2024-03-08T04:56:18;1.96;89.55
68257;DHT22;55069;51.568;4.656;2024-03-08T04:58:45;1.90;89.40
68257;DHT22;55069;51.568;4.656;2024-03-08T05:01:12;1.90;89.34
68257;DHT22;55069;51.568;4.656;2024-03-08T05:03:38;1.92;89.76
68257;DHT22;55069;51.568;4.656;2024-03-08T05:06:04;1.95;89.33
68257;DHT22;55069;51.568;4.656;2024-03-08T05:08:29;1.86;90.00
68257;DHT22;55069;51.568;4.656;2024-03-08T05:10:55;1.86;89.95
68257;DHT22;55069;51.568;4.656;2024-03-08T05:13:20;1.87;89.71
68257;DHT22;55069;51.568;4.656;2024-03-08T05:15:49;1.89;89.50
68257;DHT22;55069;51.568;4.656;2024-03-08T05:18:18;1.83;89.55
68257;DHT22;55069;51.568;4.656;2024-03-08T05:20:43;1.85;89.36
68257;DHT22;55069;51.568;4.656;2024-03-08T05:23:09;1.83;89.44
68257;DHT22;55069;51.568;4.656;2024-03-08T05:25:34;1.73;89.57
68257;DHT22;55069;51.568;4.656;2024-03-08T05:28:00;1.70;90.06
68257;DHT22;55069;51.568;4.656;2024-03-08T05:30:25;1.78;89.67
68257;DHT22;55069;51.568;4.656;2024-03-08T05:32:51;1.79;89.30
68257;DHT22;55069;51.568;4.656;2024-03-08T05:35:16;1.76;88.99
68257;DHT22;55069;51.568;4.656;2024-03-08T05:37:42;1.73;89.59
68257;DHT22;55069;51.568;4.656;2024-03-08T05:40:08;1.70;89.59
68257;DHT22;55069;51.568;4.656;2024-03-08T05:42:38;1.69;89.45
68257;DHT22;55069;51.568;4.656;2024-03-08T05:45:04;1.68;89.63
68257;DHT22;55069;51.568;4.656;2024-03-08T05:47:31;1.59;90.38
68257;DHT22;55069;51.568;4.656;2024-03-08T05:49:58;1.55;90.23
68257;DHT22;55069;51.568;4.656;2024-03-08T05:52:24;1.55;90.41
68257;DHT22;55069;51.568;4.656;2024-03-08T05:54:51;1.58;90.25
68257;DHT22;55069;51.568;4.656;2024-03-08T05:57:17;1.59;89.95
68257;DHT22;55069;51.568;4.656;2024-03-08T05:59:42;1.56;90.04
68257;DHT22;55069;51.568;4.656;2024-03-08T06:02:08;1.55;90.14
68257;DHT22;55069;51.568;4.656;2024-03-08T06:04:33;1.51;90.28
68257;DHT22;55069;51.568;4.656;2024-03-08T06:06:59;1.45;90.69
68257;DHT22;55069;51.568;4.656;2024-03-08T06:09:25;1.52;90.54
68257;DHT22;55069;51.568;4.656;2024-03-08T06:11:51;1.56;89.88
68257;DHT22;55069;51.568;4.656;2024-03-08T06:14:17;1.44;90.22
68257;DHT22;55069;51.568;4.656;2024-03-08T06:16:46;1.50;90.37
68257;DHT22;55069;51.568;4.656;2024-03-08T06:19:13;1.44;90.41
68257;DHT22;55069;51.568;4.656;2024-03-08T06:21:38;1.45;90.56
68257;DHT22;55069;51.568;4.656;2024-03-08T06:24:04;1.45;90.49
68257;DHT22;55069;51.568;4.656;2024-03-08T06:26:30;1.45;90.18
68257;DHT22;55069;51.568;4.656;2024-03-08T06:28:56;1.52;90.00
68257;DHT22;55069;51.568;4.656;2024-03-08T06:31:22;1.56;89.88
68257;DHT22;55069;51.568;4.656;2024-03-08T06:33:48;1.61;89.75
68257;DHT22;55069;51.568;4.656;2024-03-08T06:36:18;1.62;89.58
68257;DHT22;55069;51.568;4.656;2024-03-08T06:39:02;1.65;89.44
68257;DHT22;55069;51.568;4.656;2024-03-08T06:41:35;1.70;88.63
68257;DHT22;55069;51.568;4.656;2024-03-08T06:44:01;1.72;89.26
68257;DHT22;55069;51.568;4.656;2024-03-08T06:46:26;1.73;89.01
68257;DHT22;55069;51.568;4.656;2024-03-08T06:48:52;1.79;88.73
68257;DHT22;55069;51.568;4.656;2024-03-08T06:51:18;1.79;88.69
68257;DHT22;55069;51.568;4.656;2024-03-08T06:53:43;1.79;88.46
68257;DHT22;55069;51.568;4.656;2024-03-08T06:56:09;1.89;88.37
68257;DHT22;55069;51.568;4.656;2024-03-08T06:58:34;1.97;87.63
68257;DHT22;55069;51.568;4.656;2024-03-08T07:00:59;2.00;87.82
68257;DHT22;55069;51.568;4.656;2024-03-08T07:03:29;2.03;87.78
68257;DHT22;55069;51.568;4.656;2024-03-08T07:05:56;2.09;87.73
68257;DHT22;55069;51.568;4.656;2024-03-08T07:08:23;2.18;87.12
68257;DHT22;55069;51.568;4.656;2024-03-08T07:10:49;2.21;87.38
68257;DHT22;55069;51.568;4.656;2024-03-08T07:13:15;2.26;87.25
68257;DHT22;55069;51.568;4.656;2024-03-08T07:15:40;2.33;86.50
68257;DHT22;55069;51.568;4.656;2024-03-08T07:18:06;2.37;86.45
68257;DHT22;55069;51.568;4.656;2024-03-08T07:20:34;2.40;86.19
68257;DHT22;55069;51.568;4.656;2024-03-08T07:23:00;2.38;86.53
68257;DHT22;55069;51.568;4.656;2024-03-08T07:25:26;2.41;86.51
68257;DHT22;55069;51.568;4.656;2024-03-08T07:27:55;2.52;86.30
68257;DHT22;55069;51.568;4.656;2024-03-08T07:30:23;2.51;86.21
68257;DHT22;55069;51.568;4.656;2024-03-08T07:33:07;2.64;86.25
68257;DHT22;55069;51.568;4.656;2024-03-08T07:35:33;2.71;85.78
68257;DHT22;55069;51.568;4.656;2024-03-08T07:38:03;2.74;85.37
68257;DHT22;55069;51.568;4.656;2024-03-08T07:40:29;2.81;85.56
68257;DHT22;55069;51.568;4.656;2024-03-08T07:42:55;2.85;85.32
68257;DHT22;55069;51.568;4.656;2024-03-08T07:45:20;2.92;85.52
68257;DHT22;55069;51.568;4.656;2024-03-08T07:47:47;2.99;85.12
68257;DHT22;55069;51.568;4.656;2024-03-08T07:50:12;3.09;84.40
68257;DHT22;55069;51.568;4.656;2024-03-08T07:52:41;3.17;84.29
68257;DHT22;55069;51.568;4.656;2024-03-08T07:55:07;3.23;84.01
68257;DHT22;55069;51.568;4.656;2024-03-08T07:57:33;3.24;84.04
68257;DHT22;55069;51.568;4.656;2024-03-08T07:59:59;3.33;83.59
68257;DHT22;55069;51.568;4.656;2024-03-08T08:02:25;3.40;83.65
68257;DHT22;55069;51.568;4.656;2024-03-08T08:04:50;3.51;83.60
68257;DHT22;55069;51.568;4.656;2024-03-08T08:07:15;3.60;82.62
68257;DHT22;55069;51.568;4.656;2024-03-08T08:09:41;3.67;82.89
68257;DHT22;55069;51.568;4.656;2024-03-08T08:12:10;3.72;82.76
68257;DHT22;55069;51.568;4.656;2024-03-08T08:14:39;3.88;82.31
68257;DHT22;55069;51.568;4.656;2024-03-08T08:17:05;3.91;81.83
68257;DHT22;55069;51.568;4.656;2024-03-08T08:19:31;3.95;82.28
68257;DHT22;55069;51.568;4.656;2024-03-08T08:21:57;4.05;83.00
68257;DHT22;55069;51.568;4.656;2024-03-08T08:24:23;4.16;82.33
68257;DHT22;55069;51.568;4.656;2024-03-08T08:26:48;4.27;81.42
68257;DHT22;55069;51.568;4.656;2024-03-08T08:29:14;4.34;81.15
68257;DHT22;55069;51.568;4.656;2024-03-08T08:31:40;4.47;81.16
68257;DHT22;55069;51.568;4.656;2024-03-08T08:34:05;4.51;80.83
68257;DHT22;55069;51.568;4.656;2024-03-08T08:36:32;4.51;80.34
68257;DHT22;55069;51.568;4.656;2024-03-08T08:38:57;4.64;80.45
68257;DHT22;55069;51.568;4.656;2024-03-08T08:41:24;4.75;80.03
68257;DHT22;55069;51.568;4.656;2024-03-08T08:43:50;4.79;79.56
68257;DHT22;55069;51.568;4.656;2024-03-08T08:46:19;4.89;79.80
68257;DHT22;55069;51.568;4.656;2024-03-08T08:48:44;4.99;78.99
68257;DHT22;55069;51.568;4.656;2024-03-08T08:51:13;5.02;78.90
68257;DHT22;55069;51.568;4.656;2024-03-08T08:53:42;5.06;78.42
68257;DHT22;55069;51.568;4.656;2024-03-08T08:56:12;5.19;78.48
68257;DHT22;55069;51.568;4.656;2024-03-08T08:58:44;5.25;78.90
68257;DHT22;55069;51.568;4.656;2024-03-08T09:01:10;5.36;78.59
68257;DHT22;55069;51.568;4.656;2024-03-08T09:03:37;5.50;78.28
68257;DHT22;55069;51.568;4.656;2024-03-08T09:06:09;5.58;77.28
68257;DHT22;55069;51.568;4.656;2024-03-08T09:08:37;5.70;77.62
68257;DHT22;55069;51.568;4.656;2024-03-08T09:11:03;5.78;77.04
68257;DHT22;55069;51.568;4.656;2024-03-08T09:13:29;5.82;76.80
68257;DHT22;55069;51.568;4.656;2024-03-08T09:15:55;5.90;76.73
68257;DHT22;55069;51.568;4.656;2024-03-08T09:18:20;5.91;76.79
68257;DHT22;55069;51.568;4.656;2024-03-08T09:20:46;5.98;76.74
68257;DHT22;55069;51.568;4.656;2024-03-08T09:23:12;5.94;76.83
68257;DHT22;55069;51.568;4.656;2024-03-08T09:25:37;6.09;77.04
68257;DHT22;55069;51.568;4.656;2024-03-08T09:28:03;6.20;76.01
68257;DHT22;55069;51.568;4.656;2024-03-08T09:30:30;6.37;75.77
68257;DHT22;55069;51.568;4.656;2024-03-08T09:32:56;6.50;75.76
68257;DHT22;55069;51.568;4.656;2024-03-08T09:35:22;6.58;74.77
68257;DHT22;55069;51.568;4.656;2024-03-08T09:37:47;6.66;74.77
68257;DHT22;55069;51.568;4.656;2024-03-08T09:40:16;6.76;74.91
68257;DHT22;55069;51.568;4.656;2024-03-08T09:42:45;6.87;74.70
68257;DHT22;55069;51.568;4.656;2024-03-08T09:45:12;7.01;74.69
68257;DHT22;55069;51.568;4.656;2024-03-08T09:47:39;7.19;73.84
68257;DHT22;55069;51.568;4.656;2024-03-08T09:50:07;7.26;74.15
68257;DHT22;55069;51.568;4.656;2024-03-08T09:52:36;7.36;73.01
68257;DHT22;55069;51.568;4.656;2024-03-08T09:55:05;7.35;72.54
68257;DHT22;55069;51.568;4.656;2024-03-08T09:57:32;7.33;73.14
68257;DHT22;55069;51.568;4.656;2024-03-08T09:59:58;7.32;72.21
68257;DHT22;55069;51.568;4.656;2024-03-08T10:02:24;7.35;71.95
68257;DHT22;55069;51.568;4.656;2024-03-08T10:04:51;7.45;72.07
68257;DHT22;55069;51.568;4.656;2024-03-08T10:07:18;7.56;72.16
68257;DHT22;55069;51.568;4.656;2024-03-08T10:09:45;7.75;72.55
68257;DHT22;55069;51.568;4.656;2024-03-08T10:12:18;7.83;71.41
68257;DHT22;55069;51.568;4.656;2024-03-08T10:14:45;7.83;71.09
68257;DHT22;55069;51.568;4.656;2024-03-08T10:17:12;7.97;71.85
68257;DHT22;55069;51.568;4.656;2024-03-08T10:19:37;8.14;71.02
68257;DHT22;55069;51.568;4.656;2024-03-08T10:22:04;8.24;69.90
68257;DHT22;55069;51.568;4.656;2024-03-08T10:24:30;8.29;70.11
68257;DHT22;55069;51.568;4.656;2024-03-08T10:26:59;8.29;68.87
68257;DHT22;55069;51.568;4.656;2024-03-08T10:29:27;8.41;69.38
68257;DHT22;55069;51.568;4.656;2024-03-08T10:31:54;8.60;69.21
68257;DHT22;55069;51.568;4.656;2024-03-08T10:34:22;8.71;68.67
68257;DHT22;55069;51.568;4.656;2024-03-08T10:36:50;8.66;66.74
68257;DHT22;55069;51.568;4.656;2024-03-08T10:39:23;8.71;67.66
68257;DHT22;55069;51.568;4.656;2024-03-08T10:41:53;8.79;66.74
68257;DHT22;55069;51.568;4.656;2024-03-08T10:44:36;8.90;67.01
68257;DHT22;55069;51.568;4.656;2024-03-08T10:47:17;8.96;66.84
68257;DHT22;55069;51.568;4.656;2024-03-08T10:50:08;9.11;66.39
68257;DHT22;55069;51.568;4.656;2024-03-08T10:52:38;9.21;66.69
68257;DHT22;55069;51.568;4.656;2024-03-08T10:55:05;9.12;66.09
68257;DHT22;55069;51.568;4.656;2024-03-08T10:57:38;9.24;66.69
68257;DHT22;55069;51.568;4.656;2024-03-08T11:00:06;9.19;65.37
68257;DHT22;55069;51.568;4.656;2024-03-08T11:02:35;9.31;66.36
68257;DHT22;55069;51.568;4.656;2024-03-08T11:05:02;9.45;65.43
68257;DHT22;55069;51.568;4.656;2024-03-08T11:07:33;9.62;66.80
68257;DHT22;55069;51.568;4.656;2024-03-08T11:10:02;9.50;65.94
68257;DHT22;55069;51.568;4.656;2024-03-08T11:12:37;9.59;65.49
68257;DHT22;55069;51.568;4.656;2024-03-08T11:15:10;9.62;65.53
68257;DHT22;55069;51.568;4.656;2024-03-08T11:20:15;9.75;64.36
68257;DHT22;55069;51.568;4.656;2024-03-08T11:22:54;9.69;64.50
68257;DHT22;55069;51.568;4.656;2024-03-08T11:25:40;9.79;64.86
68257;DHT22;55069;51.568;4.656;2024-03-08T11:28:13;10.00;64.76
68257;DHT22;55069;51.568;4.656;2024-03-08T11:30:45;10.14;65.50
68257;DHT22;55069;51.568;4.656;2024-03-08T11:33:16;10.31;65.35
68257;DHT22;55069;51.568;4.656;2024-03-08T11:35:43;10.18;63.25
68257;DHT22;55069;51.568;4.656;2024-03-08T11:38:11;10.18;63.76
68257;DHT22;55069;51.568;4.656;2024-03-08T11:40:39;10.05;63.85
68257;DHT22;55069;51.568;4.656;2024-03-08T11:43:05;10.31;64.44
68257;DHT22;55069;51.568;4.656;2024-03-08T11:45:34;10.45;62.93
68257;DHT22;55069;51.568;4.656;2024-03-08T11:48:02;10.35;63.05
68257;DHT22;55069;51.568;4.656;2024-03-08T11:50:29;10.40;62.61
68257;DHT22;55069;51.568;4.656;2024-03-08T11:53:03;10.53;62.93
68257;DHT22;55069;51.568;4.656;2024-03-08T11:55:30;10.69;63.96
68257;DHT22;55069;51.568;4.656;2024-03-08T11:58:02;10.83;62.56
68257;DHT22;55069;51.568;4.656;2024-03-08T12:00:27;10.96;62.69
68257;DHT22;55069;51.568;4.656;2024-03-08T12:03:07;10.92;62.41
68257;DHT22;55069;51.568;4.656;2024-03-08T12:05:34;11.20;62.22
68257;DHT22;55069;51.568;4.656;2024-03-08T12:08:02;11.11;59.35
68257;DHT22;55069;51.568;4.656;2024-03-08T12:10:28;11.00;59.60
68257;DHT22;55069;51.568;4.656;2024-03-08T12:12:55;11.11;60.88
68257;DHT22;55069;51.568;4.656;2024-03-08T12:15:23;11.00;59.78
68257;DHT22;55069;51.568;4.656;2024-03-08T12:17:50;11.03;60.51
68257;DHT22;55069;51.568;4.656;2024-03-08T12:22:44;11.06;59.56
68257;DHT22;55069;51.568;4.656;2024-03-08T12:25:11;11.13;60.18
68257;DHT22;55069;51.568;4.656;2024-03-08T12:27:38;11.20;59.62
68257;DHT22;55069;51.568;4.656;2024-03-08T12:30:17;11.27;59.86
68257;DHT22;55069;51.568;4.656;2024-03-08T12:32:53;11.55;60.26
68257;DHT22;55069;51.568;4.656;2024-03-08T12:35:20;11.41;58.81
68257;DHT22;55069;51.568;4.656;2024-03-08T12:37:52;11.35;58.80
68257;DHT22;55069;51.568;4.656;2024-03-08T12:40:18;11.54;59.40
68257;DHT22;55069;51.568;4.656;2024-03-08T12:42:45;11.54;60.07
68257;DHT22;55069;51.568;4.656;2024-03-08T12:45:14;11.66;60.25
68257;DHT22;55069;51.568;4.656;2024-03-08T12:47:39;11.71;59.04
68257;DHT22;55069;51.568;4.656;2024-03-08T12:50:08;11.66;60.56
68257;DHT22;55069;51.568;4.656;2024-03-08T12:52:34;11.89;61.14
68257;DHT22;55069;51.568;4.656;2024-03-08T12:55:00;11.85;60.19
68257;DHT22;55069;51.568;4.656;2024-03-08T12:57:33;12.12;58.67
68257;DHT22;55069;51.568;4.656;2024-03-08T13:00:00;11.97;58.10
68257;DHT22;55069;51.568;4.656;2024-03-08T13:02:26;11.89;59.26
68257;DHT22;55069;51.568;4.656;2024-03-08T13:04:51;11.79;58.35
68257;DHT22;55069;51.568;4.656;2024-03-08T13:07:23;11.57;58.30
68257;DHT22;55069;51.568;4.656;2024-03-08T13:09:54;11.62;59.03
68257;DHT22;55069;51.568;4.656;2024-03-08T13:12:23;11.65;59.08
68257;DHT22;55069;51.568;4.656;2024-03-08T13:14:49;11.69;58.92
68257;DHT22;55069;51.568;4.656;2024-03-08T13:17:15;11.62;58.01
68257;DHT22;55069;51.568;4.656;2024-03-08T13:19:41;11.68;58.62
68257;DHT22;55069;51.568;4.656;2024-03-08T13:22:09;11.79;59.61
68257;DHT22;55069;51.568;4.656;2024-03-08T13:24:44;11.59;57.84
68257;DHT22;55069;51.568;4.656;2024-03-08T13:27:10;11.55;58.15
68257;DHT22;55069;51.568;4.656;2024-03-08T13:29:48;11.61;58.05
68257;DHT22;55069;51.568;4.656;2024-03-08T13:32:15;11.55;58.72
68257;DHT22;55069;51.568;4.656;2024-03-08T13:34:42;11.87;59.97
68257;DHT22;55069;51.568;4.656;2024-03-08T13:37:08;11.86;57.77
68257;DHT22;55069;51.568;4.656;2024-03-08T13:39:36;11.97;58.72
68257;DHT22;55069;51.568;4.656;2024-03-08T13:42:11;12.13;58.57
68257;DHT22;55069;51.568;4.656;2024-03-08T13:44:45;11.99;58.53
68257;DHT22;55069;51.568;4.656;2024-03-08T13:47:13;11.85;58.39
68257;DHT22;55069;51.568;4.656;2024-03-08T13:49:39;12.03;61.60
68257;DHT22;55069;51.568;4.656;2024-03-08T13:52:05;12.02;60.52
68257;DHT22;55069;51.568;4.656;2024-03-08T13:54:30;12.03;61.47
68257;DHT22;55069;51.568;4.656;2024-03-08T13:56:57;12.03;62.63
68257;DHT22;55069;51.568;4.656;2024-03-08T13:59:23;11.93;59.65
68257;DHT22;55069;51.568;4.656;2024-03-08T14:01:49;11.92;61.68
68257;DHT22;55069;51.568;4.656;2024-03-08T14:04:16;11.93;61.90
68257;DHT22;55069;51.568;4.656;2024-03-08T14:06:44;12.02;61.81
68257;DHT22;55069;51.568;4.656;2024-03-08T14:09:14;11.90;60.27
68257;DHT22;55069;51.568;4.656;2024-03-08T14:11:43;11.82;57.73
68257;DHT22;55069;51.568;4.656;2024-03-08T14:14:10;11.83;58.92
68257;DHT22;55069;51.568;4.656;2024-03-08T14:16:38;11.87;59.04
68257;DHT22;55069;51.568;4.656;2024-03-08T14:19:04;11.89;58.75
68257;DHT22;55069;51.568;4.656;2024-03-08T14:21:33;11.82;58.23
68257;DHT22;55069;51.568;4.656;2024-03-08T14:23:59;11.86;58.85
68257;DHT22;55069;51.568;4.656;2024-03-08T14:26:24;11.95;59.43
68257;DHT22;55069;51.568;4.656;2024-03-08T14:28:51;11.89;58.58
68257;DHT22;55069;51.568;4.656;2024-03-08T14:31:20;12.00;59.26
68257;DHT22;55069;51.568;4.656;2024-03-08T14:33:45;11.95;58.86
68257;DHT22;55069;51.568;4.656;2024-03-08T14:36:14;11.86;58.43
68257;DHT22;55069;51.568;4.656;2024-03-08T14:38:42;11.90;60.41
68257;DHT22;55069;51.568;4.656;2024-03-08T14:41:08;11.92;59.94
68257;DHT22;55069;51.568;4.656;2024-03-08T14:43:34;11.87;58.89
68257;DHT22;55069;51.568;4.656;2024-03-08T14:45:59;11.75;59.19
68257;DHT22;55069;51.568;4.656;2024-03-08T14:48:25;11.78;58.99
68257;DHT22;55069;51.568;4.656;2024-03-08T14:50:50;11.74;58.68
68257;DHT22;55069;51.568;4.656;2024-03-08T14:53:16;11.68;59.38
68257;DHT22;55069;51.568;4.656;2024-03-08T14:55:42;11.65;59.71
68257;DHT22;55069;51.568;4.656;2024-03-08T14:58:08;11.58;60.02
68257;DHT22;55069;51.568;4.656;2024-03-08T15:00:34;11.54;58.93
68257;DHT22;55069;51.568;4.656;2024-03-08T15:03:01;11.57;61.63
68257;DHT22;55069;51.568;4.656;2024-03-08T15:05:36;11.55;60.11
68257;DHT22;55069;51.568;4.656;2024-03-08T15:08:07;11.59;59.84
68257;DHT22;55069;51.568;4.656;2024-03-08T15:10:36;11.55;61.26
68257;DHT22;55069;51.568;4.656;2024-03-08T15:13:01;11.59;60.52
68257;DHT22;55069;51.568;4.656;2024-03-08T15:15:33;11.61;59.45
68257;DHT22;55069;51.568;4.656;2024-03-08T15:17:58;11.58;59.93
68257;DHT22;55069;51.568;4.656;2024-03-08T15:20:24;11.58;59.77
68257;DHT22;55069;51.568;4.656;2024-03-08T15:22:50;11.52;59.43
68257;DHT22;55069;51.568;4.656;2024-03-08T15:25:20;11.52;59.45
68257;DHT22;55069;51.568;4.656;2024-03-08T15:27:54;11.54;59.32
68257;DHT22;55069;51.568;4.656;2024-03-08T15:30:21;11.50;59.35
68257;DHT22;55069;51.568;4.656;2024-03-08T15:32:54;11.50;60.85
68257;DHT22;55069;51.568;4.656;2024-03-08T15:35:27;11.51;59.55
68257;DHT22;55069;51.568;4.656;2024-03-08T15:37:53;11.51;59.67
68257;DHT22;55069;51.568;4.656;2024-03-08T15:40:23;11.58;59.15
68257;DHT22;55069;51.568;4.656;2024-03-08T15:42:54;11.59;60.97
68257;DHT22;55069;51.568;4.656;2024-03-08T15:45:20;11.64;60.42
68257;DHT22;55069;51.568;4.656;2024-03-08T15:47:46;11.62;59.78